createdAt,value
2022-11-09T00:01:02.600Z,36.17
2022-11-09T00:03:48.364Z,35.10
2022-11-09T00:06:34.451Z,35.93
2022-11-09T00:09:19.666Z,37.90
2022-11-09T00:12:07.312Z,32.50
2022-11-09T00:14:52.458Z,34.93
2022-11-09T00:17:37.530Z,32.97
2022-11-09T00:20:22.382Z,33.17
2022-11-09T00:23:07.347Z,32.53
2022-11-09T00:25:52.331Z,32.63
2022-11-09T00:28:37.488Z,31.73
2022-11-09T00:31:24.087Z,33.83
2022-11-09T00:34:09.171Z,31.53
2022-11-09T00:36:54.154Z,32.43
2022-11-09T00:39:39.627Z,29.60
2022-11-09T00:42:25.123Z,31.60
2022-11-09T00:45:10.300Z,36.93
2022-11-09T00:47:55.635Z,29.37
2022-11-09T00:50:40.559Z,30.23
2022-11-09T00:53:27.222Z,28.07
2022-11-09T00:56:13.337Z,26.67
2022-11-09T00:58:59.001Z,29.03
2022-11-09T01:01:44.682Z,30.17
2022-11-09T01:04:29.876Z,27.00
2022-11-09T01:07:15.231Z,27.57
2022-11-09T01:10:00.687Z,27.47
2022-11-09T01:12:46.069Z,25.90
2022-11-09T01:15:33.305Z,26.13
2022-11-09T01:18:20.786Z,23.97
2022-11-09T01:21:08.315Z,26.73
2022-11-09T01:23:54.489Z,24.33
2022-11-09T01:26:39.758Z,25.53
2022-11-09T01:29:24.708Z,24.87
2022-11-09T01:32:09.524Z,21.97
2022-11-09T01:34:54.408Z,24.47
2022-11-09T01:37:39.371Z,23.40
2022-11-09T01:40:24.550Z,24.07
2022-11-09T01:43:21.773Z,24.27
2022-11-09T01:46:24.396Z,22.33
2022-11-09T01:49:31.673Z,22.03
2022-11-09T01:52:40.852Z,23.90
2022-11-09T01:55:26.547Z,24.90
2022-11-09T01:58:16.834Z,23.40
2022-11-09T02:01:03.693Z,21.60
2022-11-09T02:03:57.187Z,22.10
2022-11-09T02:06:44.620Z,21.37
2022-11-09T02:09:37.791Z,19.67
2022-11-09T02:12:25.526Z,19.67
2022-11-09T02:15:12.069Z,20.10
2022-11-09T02:17:58.876Z,20.10
2022-11-09T02:20:48.629Z,23.57
2022-11-09T02:23:33.698Z,17.67
2022-11-09T02:26:28.874Z,19.10
2022-11-09T02:29:18.586Z,18.07
2022-11-09T02:32:08.583Z,17.20
2022-11-09T02:34:54.076Z,18.43
2022-11-09T02:37:48.903Z,18.73
2022-11-09T02:40:38.364Z,19.37
2022-11-09T02:43:27.278Z,17.17
2022-11-09T02:46:12.687Z,17.43
2022-11-09T02:49:00.988Z,16.17
2022-11-09T02:51:46.445Z,17.50
2022-11-09T02:54:31.633Z,16.07
2022-11-09T02:57:17.536Z,14.37
2022-11-09T03:00:04.673Z,17.60
2022-11-09T03:02:49.813Z,15.80
2022-11-09T03:05:35.344Z,14.50
2022-11-09T03:08:20.765Z,15.07
2022-11-09T03:11:06.914Z,16.17
2022-11-09T03:13:52.462Z,16.40
2022-11-09T03:16:39.518Z,15.37
2022-11-09T03:19:24.744Z,16.73
2022-11-09T03:22:11.310Z,14.77
2022-11-09T03:24:56.852Z,15.17
2022-11-09T03:27:42.595Z,14.90
2022-11-09T03:30:28.445Z,16.40
2022-11-09T03:33:14.353Z,13.73
2022-11-09T03:36:00.654Z,14.27
2022-11-09T03:38:46.785Z,13.67
2022-11-09T03:41:32.846Z,13.67
2022-11-09T03:44:20.067Z,13.87
2022-11-09T03:47:05.378Z,12.97
2022-11-09T03:49:50.581Z,13.50
2022-11-09T03:52:36.704Z,14.00
2022-11-09T03:55:22.000Z,13.60
2022-11-09T03:58:09.568Z,11.80
2022-11-09T04:00:54.521Z,14.97
2022-11-09T04:03:39.572Z,11.27
2022-11-09T04:06:24.428Z,12.50
2022-11-09T04:09:10.572Z,11.50
2022-11-09T04:11:55.757Z,11.87
2022-11-09T04:14:41.287Z,11.30
2022-11-09T04:17:26.352Z,11.40
2022-11-09T04:20:12.052Z,10.67
2022-11-09T04:22:59.924Z,10.87
2022-11-09T04:25:48.392Z,12.67
2022-11-09T04:28:37.050Z,10.83
2022-11-09T04:31:25.571Z,10.47
2022-11-09T04:34:13.246Z,10.70
2022-11-09T04:36:58.781Z,11.33
2022-11-09T04:39:44.222Z,11.63
2022-11-09T04:42:29.454Z,10.63
2022-11-09T04:45:14.684Z,9.27
2022-11-09T04:48:01.003Z,11.27
2022-11-09T04:50:46.291Z,10.53
2022-11-09T04:53:34.867Z,9.50
2022-11-09T04:56:20.026Z,10.00
2022-11-09T04:59:05.360Z,10.47
2022-11-09T05:01:50.805Z,10.77
2022-11-09T05:04:36.271Z,10.40
2022-11-09T05:07:21.297Z,11.30
2022-11-09T05:10:06.957Z,9.33
2022-11-09T05:13:01.276Z,9.77
2022-11-09T05:15:46.453Z,8.53
2022-11-09T05:18:31.731Z,9.63
2022-11-09T05:21:17.457Z,8.63
2022-11-09T05:24:03.101Z,9.87
2022-11-09T05:26:48.479Z,8.47
2022-11-09T05:29:33.806Z,7.87
2022-11-09T05:32:18.936Z,10.50
2022-11-09T05:35:04.104Z,8.27
2022-11-09T05:37:50.032Z,8.73
2022-11-09T05:40:35.229Z,7.80
2022-11-09T05:43:21.413Z,9.90
2022-11-09T05:46:07.896Z,8.77
2022-11-09T05:48:52.800Z,8.43
2022-11-09T05:51:37.726Z,7.27
2022-11-09T05:54:22.651Z,8.70
2022-11-09T05:57:07.714Z,9.13
2022-11-09T05:59:52.753Z,7.87
2022-11-09T06:02:38.029Z,7.87
2022-11-09T06:05:23.089Z,8.40
2022-11-09T06:08:13.080Z,8.87
2022-11-09T06:11:00.801Z,6.93
2022-11-09T06:13:46.121Z,7.70
2022-11-09T06:16:31.004Z,9.07
2022-11-09T06:19:16.581Z,7.43
2022-11-09T06:22:01.505Z,8.10
2022-11-09T06:24:46.454Z,7.63
2022-11-09T06:27:31.329Z,7.30
2022-11-09T06:30:16.997Z,7.67
2022-11-09T06:33:02.970Z,7.87
2022-11-09T06:35:50.903Z,6.90
2022-11-09T06:38:40.871Z,6.80
2022-11-09T06:41:26.382Z,6.33
2022-11-09T06:44:11.450Z,7.13
2022-11-09T06:46:56.671Z,6.03
2022-11-09T06:49:42.401Z,4.93
2022-11-09T06:52:27.646Z,5.80
2022-11-09T06:55:13.040Z,4.13
2022-11-09T06:57:58.542Z,6.50
2022-11-09T07:00:45.052Z,5.50
2022-11-09T07:03:30.442Z,4.10
2022-11-09T07:06:15.790Z,3.47
2022-11-09T07:09:00.921Z,4.47
2022-11-09T07:11:49.092Z,3.60
2022-11-09T07:14:34.367Z,3.53
2022-11-09T07:17:19.978Z,3.23
2022-11-09T07:20:09.174Z,3.73
2022-11-09T07:22:54.918Z,3.60
2022-11-09T07:25:40.047Z,4.00
2022-11-09T07:28:24.976Z,3.07
2022-11-09T07:31:10.560Z,4.40
2022-11-09T07:33:58.281Z,8.27
2022-11-09T07:36:43.601Z,5.40
2022-11-09T07:39:28.734Z,4.07
2022-11-09T07:42:14.413Z,7.93
2022-11-09T07:45:00.425Z,3.40
2022-11-09T07:47:45.851Z,5.70
2022-11-09T07:50:32.337Z,4.07
2022-11-09T07:53:18.030Z,4.43
2022-11-09T07:56:03.971Z,3.57
2022-11-09T07:58:50.451Z,4.57
2022-11-09T08:01:36.337Z,2.97
2022-11-09T08:04:21.381Z,3.70
2022-11-09T08:07:06.322Z,3.60
2022-11-09T08:09:51.589Z,3.30
2022-11-09T08:12:37.575Z,5.97
2022-11-09T08:15:23.795Z,3.67
2022-11-09T08:18:27.465Z,2.93
2022-11-09T08:21:12.660Z,4.07
2022-11-09T08:23:57.744Z,2.60
2022-11-09T08:26:43.191Z,3.67
2022-11-09T08:29:28.278Z,3.27
2022-11-09T08:32:13.242Z,3.83
2022-11-09T08:34:58.720Z,3.47
2022-11-09T08:37:46.745Z,2.70
2022-11-09T08:40:33.008Z,2.87
2022-11-09T08:43:18.418Z,3.10
2022-11-09T08:46:03.632Z,2.50
2022-11-09T08:48:48.957Z,2.40
2022-11-09T08:51:35.148Z,2.57
2022-11-09T08:54:20.164Z,2.87
2022-11-09T08:57:05.626Z,4.07
2022-11-09T08:59:50.593Z,2.77
2022-11-09T09:02:35.969Z,3.57
2022-11-09T09:05:21.992Z,4.47
2022-11-09T09:08:07.064Z,2.57
2022-11-09T09:10:52.153Z,2.27
2022-11-09T09:13:42.124Z,2.70
2022-11-09T09:16:29.085Z,3.43
2022-11-09T09:19:14.214Z,2.47
2022-11-09T09:22:01.333Z,2.47
2022-11-09T09:24:46.857Z,2.30
2022-11-09T09:27:32.568Z,2.60
2022-11-09T09:30:17.938Z,3.37
2022-11-09T09:33:03.550Z,2.73
2022-11-09T09:35:48.972Z,3.80
2022-11-09T09:38:34.048Z,2.30
2022-11-09T09:41:19.246Z,3.37
2022-11-09T09:44:27.885Z,1.93
2022-11-09T09:47:52.986Z,2.30
2022-11-09T09:50:53.777Z,2.07
2022-11-09T09:53:47.838Z,2.10
2022-11-09T09:56:41.809Z,3.30
2022-11-09T09:59:36.738Z,2.10
2022-11-09T10:02:29.209Z,2.20
2022-11-09T10:05:15.818Z,2.20
2022-11-09T10:08:13.225Z,2.33
2022-11-09T10:11:09.020Z,2.13
2022-11-09T10:14:25.109Z,3.43
2022-11-09T10:17:28.510Z,2.43
2022-11-09T10:20:19.635Z,3.10
2022-11-09T10:23:20.470Z,2.40
2022-11-09T10:26:18.946Z,2.20
2022-11-09T10:29:26.926Z,2.10
2022-11-09T10:32:18.131Z,2.00
2022-11-09T10:35:12.871Z,1.73
2022-11-09T10:37:58.005Z,2.10
2022-11-09T10:40:54.504Z,2.00
2022-11-09T10:43:59.833Z,2.00
2022-11-09T10:47:13.100Z,1.70
2022-11-09T10:50:40.189Z,1.90
2022-11-09T10:53:44.690Z,1.87
2022-11-09T10:57:06.128Z,1.77
2022-11-09T11:00:16.496Z,1.60
2022-11-09T11:03:20.836Z,1.90
2022-11-09T11:06:24.869Z,1.80
2022-11-09T11:09:28.741Z,1.97
2022-11-09T11:12:36.197Z,2.20
2022-11-09T11:15:42.491Z,2.13
2022-11-09T11:18:47.434Z,1.90
2022-11-09T11:22:23.286Z,2.50
2022-11-09T11:25:27.414Z,2.20
2022-11-09T11:28:39.914Z,1.97
2022-11-09T11:31:44.342Z,3.13
2022-11-09T11:35:03.958Z,2.60
2022-11-09T11:38:08.300Z,3.10
2022-11-09T11:41:25.831Z,2.33
2022-11-09T11:45:02.998Z,2.33
2022-11-09T11:48:43.619Z,1.60
2022-11-09T11:52:03.962Z,3.07
2022-11-09T11:55:07.894Z,1.97
2022-11-09T11:58:22.981Z,4.27
2022-11-09T12:01:47.970Z,2.10
2022-11-09T12:05:10.153Z,4.53
2022-11-09T12:08:27.641Z,2.43
2022-11-09T12:11:51.324Z,1.60
2022-11-09T12:15:14.113Z,1.60
2022-11-09T12:18:42.695Z,1.80
2022-11-09T12:21:59.093Z,1.50
2022-11-09T12:25:15.905Z,1.53
2022-11-09T12:29:06.229Z,1.30
2022-11-09T12:32:31.420Z,1.37
2022-11-09T12:35:45.779Z,1.40
2022-11-09T12:39:05.918Z,1.43
2022-11-09T12:42:18.060Z,1.90
2022-11-09T12:45:34.706Z,1.67
2022-11-09T12:48:40.797Z,1.60
2022-11-09T12:51:45.038Z,3.47
2022-11-09T12:54:50.509Z,1.50
2022-11-09T12:57:59.631Z,1.80
2022-11-09T13:01:13.144Z,2.70
2022-11-09T13:04:20.034Z,1.53
2022-11-09T13:07:50.034Z,1.67
2022-11-09T13:11:38.592Z,1.73
2022-11-09T13:14:43.690Z,3.03
2022-11-09T13:17:55.634Z,2.00
2022-11-09T13:21:26.550Z,6.50
2022-11-09T13:24:30.758Z,2.50
2022-11-09T13:27:34.562Z,2.33
2022-11-09T13:30:42.045Z,71.17
2022-11-09T13:33:46.045Z,86.60
2022-11-09T13:37:28.637Z,73.80
2022-11-09T13:40:32.527Z,62.37
2022-11-09T13:43:39.750Z,55.70
2022-11-09T13:46:46.964Z,47.47
2022-11-09T13:49:52.145Z,36.70
2022-11-09T13:52:58.892Z,31.77
2022-11-09T13:56:26.145Z,29.60
2022-11-09T13:59:39.139Z,26.03
2022-11-09T14:02:52.418Z,22.57
2022-11-09T14:06:02.514Z,21.33
2022-11-09T14:09:16.689Z,23.30
2022-11-09T14:12:54.557Z,17.07
2022-11-09T14:16:03.200Z,17.10
2022-11-09T14:19:27.752Z,13.90
2022-11-09T14:22:35.209Z,15.00
2022-11-09T14:25:39.362Z,13.47
2022-11-09T14:28:43.398Z,12.80
2022-11-09T14:31:47.751Z,13.37
2022-11-09T14:34:52.111Z,10.53
2022-11-09T14:37:58.604Z,9.83
2022-11-09T14:41:03.108Z,10.07
2022-11-09T14:44:18.840Z,9.50
2022-11-09T14:47:30.608Z,8.00
2022-11-09T14:50:37.367Z,4.40
2022-11-09T14:53:42.565Z,3.27
2022-11-09T14:56:47.064Z,4.17
2022-11-09T14:59:51.399Z,3.53
2022-11-09T15:02:56.278Z,2.47
2022-11-09T15:06:15.211Z,3.27
2022-11-09T15:09:23.034Z,3.07
2022-11-09T15:12:29.600Z,6.43
2022-11-09T15:15:35.420Z,6.97
2022-11-09T15:18:45.832Z,7.40
2022-11-09T15:21:49.665Z,10.17
2022-11-09T15:24:54.026Z,3.47
2022-11-09T15:28:13.745Z,2.70
2022-11-09T15:31:19.465Z,3.30
2022-11-09T15:34:26.937Z,5.03
2022-11-09T15:37:43.107Z,2.83
2022-11-09T15:40:47.006Z,4.13
2022-11-09T15:43:51.813Z,3.73
2022-11-09T15:46:55.778Z,4.97
2022-11-09T15:50:01.854Z,3.43
2022-11-09T15:53:06.217Z,5.33
2022-11-09T15:56:16.389Z,3.00
2022-11-09T15:59:24.193Z,3.27
2022-11-09T16:02:28.042Z,4.73
2022-11-09T16:05:32.897Z,3.10
2022-11-09T16:08:37.390Z,4.17
2022-11-09T16:11:41.510Z,3.67
2022-11-09T16:14:45.574Z,3.40
2022-11-09T16:17:50.563Z,3.03
2022-11-09T16:20:54.771Z,2.83
2022-11-09T16:23:59.019Z,3.27
2022-11-09T16:27:12.498Z,3.33
2022-11-09T16:30:29.650Z,2.93
2022-11-09T16:33:34.200Z,3.20
2022-11-09T16:36:43.016Z,2.57
2022-11-09T16:39:52.060Z,2.50
2022-11-09T16:42:56.294Z,3.90
2022-11-09T16:46:00.526Z,3.17
2022-11-09T16:49:04.565Z,3.83
2022-11-09T16:52:09.378Z,3.37
2022-11-09T16:55:13.711Z,2.77
2022-11-09T16:58:17.879Z,3.63
2022-11-09T17:01:24.994Z,2.33
2022-11-09T17:04:29.007Z,3.00
2022-11-09T17:07:42.124Z,3.17
2022-11-09T17:10:47.095Z,2.60
2022-11-09T17:13:58.937Z,2.47
2022-11-09T17:17:02.829Z,3.77
2022-11-09T17:20:07.510Z,3.00
2022-11-09T17:23:12.570Z,3.00
2022-11-09T17:26:17.438Z,2.60
2022-11-09T17:29:22.753Z,2.77
2022-11-09T17:32:28.222Z,2.47
2022-11-09T17:35:36.487Z,3.03
2022-11-09T17:38:40.736Z,2.73
2022-11-09T17:41:44.652Z,2.70
2022-11-09T17:44:48.851Z,2.63
2022-11-09T17:47:53.021Z,3.50
2022-11-09T17:50:58.169Z,2.73
2022-11-09T17:54:03.880Z,3.20
2022-11-09T17:57:07.899Z,3.87
2022-11-09T18:00:12.330Z,3.13
2022-11-09T18:03:17.013Z,3.13
2022-11-09T18:06:23.387Z,3.10
2022-11-09T18:09:40.713Z,2.53
2022-11-09T18:12:46.297Z,2.50
2022-11-09T18:15:50.096Z,2.30
2022-11-09T18:18:59.781Z,3.83
2022-11-09T18:22:05.665Z,3.63
2022-11-09T18:25:13.415Z,5.93
2022-11-09T18:28:17.248Z,2.97
2022-11-09T18:31:21.073Z,5.43
2022-11-09T18:34:25.230Z,4.60
2022-11-09T18:37:29.463Z,6.53
2022-11-09T18:40:33.229Z,10.30
2022-11-09T18:43:37.401Z,11.00
2022-11-09T18:46:41.481Z,27.07
2022-11-09T18:49:45.282Z,22.77
2022-11-09T18:52:49.018Z,30.00
2022-11-09T18:56:03.465Z,39.50
2022-11-09T18:59:12.483Z,44.70
2022-11-09T19:02:16.678Z,49.53
2022-11-09T19:05:20.826Z,52.63
2022-11-09T19:08:43.809Z,50.93
2022-11-09T19:11:47.854Z,52.57
2022-11-09T19:14:51.677Z,59.07
2022-11-09T19:17:55.649Z,70.90
2022-11-09T19:21:00.079Z,61.60
2022-11-09T19:24:04.890Z,53.17
2022-11-09T19:27:09.672Z,62.73
2022-11-09T19:30:13.708Z,63.53
2022-11-09T19:33:17.835Z,65.00
2022-11-09T19:36:32.522Z,66.93
2022-11-09T19:39:41.836Z,64.17
2022-11-09T19:42:47.217Z,64.80
2022-11-09T19:45:51.089Z,58.83
2022-11-09T19:48:55.070Z,62.50
2022-11-09T19:51:59.309Z,75.27
2022-11-09T19:55:04.807Z,206.13
2022-11-09T19:58:11.237Z,195.27
2022-11-09T20:01:15.175Z,192.70
2022-11-09T20:04:19.414Z,173.50
2022-11-09T20:07:23.480Z,143.33
2022-11-09T20:10:27.486Z,138.57
2022-11-09T20:13:31.299Z,130.17
2022-11-09T20:16:36.640Z,114.37
2022-11-09T20:19:40.552Z,104.00
2022-11-09T20:22:44.839Z,102.27
2022-11-09T20:25:49.103Z,102.90
2022-11-09T20:28:54.708Z,92.00
2022-11-09T20:31:58.814Z,87.80
2022-11-09T20:35:02.870Z,77.87
2022-11-09T20:38:07.100Z,80.80
2022-11-09T20:41:11.717Z,74.60
2022-11-09T20:44:15.984Z,70.40
2022-11-09T20:47:42.069Z,69.60
2022-11-09T20:50:45.757Z,63.50
2022-11-09T20:53:50.876Z,68.20
2022-11-09T20:56:54.685Z,61.27
2022-11-09T20:59:59.992Z,59.40
2022-11-09T21:03:05.838Z,60.97
2022-11-09T21:06:11.292Z,56.43
2022-11-09T21:09:15.589Z,57.37
2022-11-09T21:12:22.321Z,58.80
2022-11-09T21:15:26.057Z,55.70
2022-11-09T21:18:29.983Z,58.63
2022-11-09T21:21:36.652Z,52.90
2022-11-09T21:24:59.530Z,53.20
2022-11-09T21:28:22.276Z,52.47
2022-11-09T21:31:26.797Z,52.70
2022-11-09T21:34:36.316Z,52.73
2022-11-09T21:37:41.072Z,52.97
2022-11-09T21:40:44.897Z,48.33
2022-11-09T21:43:48.769Z,51.27
2022-11-09T21:46:53.161Z,46.60
2022-11-09T21:49:57.269Z,45.23
2022-11-09T21:53:01.270Z,48.37
2022-11-09T21:56:06.656Z,45.53
2022-11-09T21:59:10.721Z,43.77
2022-11-09T22:02:14.821Z,47.67
2022-11-09T22:05:22.935Z,42.40
2022-11-09T22:08:27.504Z,42.80
2022-11-09T22:11:50.297Z,39.80
2022-11-09T22:15:13.105Z,42.63
2022-11-09T22:18:37.084Z,41.97
2022-11-09T22:21:42.361Z,40.23
2022-11-09T22:24:46.335Z,40.17
2022-11-09T22:27:50.445Z,39.83
2022-11-09T22:30:54.369Z,38.50
2022-11-09T22:33:58.472Z,37.70
2022-11-09T22:37:02.587Z,38.93
2022-11-09T22:40:07.238Z,36.07
2022-11-09T22:43:11.650Z,35.13
2022-11-09T22:46:17.456Z,33.63
2022-11-09T22:49:21.621Z,34.87
2022-11-09T22:52:25.605Z,34.50
2022-11-09T22:55:29.535Z,31.57
2022-11-09T22:58:33.712Z,32.27
2022-11-09T23:01:37.792Z,31.37
2022-11-09T23:04:42.086Z,32.27
2022-11-09T23:07:45.845Z,29.67
2022-11-09T23:10:56.696Z,31.83
2022-11-09T23:14:00.959Z,28.20
2022-11-09T23:17:24.851Z,28.77
2022-11-09T23:20:34.255Z,29.23
2022-11-09T23:23:39.780Z,26.90
2022-11-09T23:26:43.780Z,27.30
2022-11-09T23:29:47.829Z,24.40
2022-11-09T23:32:52.425Z,24.43
2022-11-09T23:35:57.549Z,23.73
2022-11-09T23:39:01.946Z,24.70
2022-11-09T23:42:05.990Z,25.20
2022-11-09T23:45:10.215Z,24.67
2022-11-09T23:48:16.864Z,25.33
2022-11-09T23:51:20.866Z,25.20
2022-11-09T23:54:25.061Z,24.27
2022-11-09T23:57:29.045Z,23.47
